createdAt,value
2022-12-03T00:00:42.160Z,86.00
2022-12-03T00:03:09.750Z,86.00
2022-12-03T00:05:36.579Z,86.10
2022-12-03T00:08:06.662Z,86.00
2022-12-03T00:10:33.872Z,85.90
2022-12-03T00:13:00.851Z,85.90
2022-12-03T00:15:27.648Z,85.90
2022-12-03T00:17:55.621Z,86.40
2022-12-03T00:20:25.570Z,86.60
2022-12-03T00:22:52.443Z,87.00
2022-12-03T00:25:19.413Z,86.20
2022-12-03T00:27:48.358Z,85.90
2022-12-03T00:30:15.027Z,85.70
2022-12-03T00:32:42.116Z,85.70
2022-12-03T00:35:08.974Z,85.80
2022-12-03T00:37:36.002Z,85.70
2022-12-03T00:40:05.818Z,85.80
2022-12-03T00:42:32.406Z,85.60
2022-12-03T00:45:05.427Z,87.20
2022-12-03T00:47:38.618Z,87.10
2022-12-03T00:50:06.204Z,86.40
2022-12-03T00:52:32.796Z,85.90
2022-12-03T00:54:59.358Z,87.60
2022-12-03T00:57:26.752Z,88.70
2022-12-03T00:59:53.581Z,88.30
2022-12-03T01:02:20.793Z,86.20
2022-12-03T01:04:48.179Z,85.30
2022-12-03T01:07:15.169Z,85.10
2022-12-03T01:09:42.156Z,85.00
2022-12-03T01:12:09.109Z,84.90
2022-12-03T01:14:39.136Z,85.00
2022-12-03T01:17:06.801Z,85.00
2022-12-03T01:19:35.113Z,85.10
2022-12-03T01:22:02.310Z,85.10
2022-12-03T01:24:28.890Z,85.80
2022-12-03T01:26:56.601Z,87.60
2022-12-03T01:29:23.317Z,86.20
2022-12-03T01:32:08.674Z,85.40
2022-12-03T01:34:35.434Z,85.20
2022-12-03T01:37:02.164Z,85.20
2022-12-03T01:39:29.006Z,85.20
2022-12-03T01:42:02.463Z,85.20
2022-12-03T01:44:31.259Z,85.30
2022-12-03T01:46:59.834Z,85.40
2022-12-03T01:49:28.478Z,85.30
2022-12-03T01:51:56.023Z,85.50
2022-12-03T01:54:25.795Z,85.50
2022-12-03T01:56:53.092Z,85.60
2022-12-03T01:59:21.456Z,85.60
2022-12-03T02:01:48.111Z,85.70
2022-12-03T02:04:15.759Z,85.70
2022-12-03T02:06:45.466Z,85.80
2022-12-03T02:09:12.892Z,85.70
2022-12-03T02:11:44.368Z,85.80
2022-12-03T02:14:12.183Z,85.70
2022-12-03T02:16:39.735Z,85.70
2022-12-03T02:19:10.152Z,85.70
2022-12-03T02:21:36.708Z,85.70
2022-12-03T02:24:03.268Z,85.70
2022-12-03T02:26:29.887Z,85.80
2022-12-03T02:28:56.704Z,85.70
2022-12-03T02:31:23.649Z,85.70
2022-12-03T02:33:50.428Z,85.70
2022-12-03T02:36:17.095Z,85.80
2022-12-03T02:38:44.223Z,85.80
2022-12-03T02:41:32.503Z,85.80
2022-12-03T02:43:59.203Z,85.80
2022-12-03T02:46:25.838Z,85.80
2022-12-03T02:48:52.403Z,85.80
2022-12-03T02:51:19.017Z,85.90
2022-12-03T02:53:47.265Z,86.10
2022-12-03T02:56:16.203Z,85.90
2022-12-03T02:58:44.675Z,85.90
2022-12-03T03:01:11.408Z,85.90
2022-12-03T03:03:38.600Z,85.80
2022-12-03T03:06:06.225Z,85.80
2022-12-03T03:08:33.015Z,85.80
2022-12-03T03:11:00.931Z,85.80
2022-12-03T03:13:29.561Z,85.80
2022-12-03T03:15:56.380Z,85.80
2022-12-03T03:18:23.278Z,85.90
2022-12-03T03:20:49.821Z,85.70
2022-12-03T03:23:17.905Z,85.90
2022-12-03T03:25:46.553Z,86.00
2022-12-03T03:28:14.069Z,85.80
2022-12-03T03:30:41.214Z,85.80
2022-12-03T03:33:08.140Z,85.90
2022-12-03T03:35:35.300Z,86.00
2022-12-03T03:38:02.083Z,86.00
2022-12-03T03:40:29.173Z,85.80
2022-12-03T03:42:55.999Z,86.20
2022-12-03T03:45:27.339Z,85.80
2022-12-03T03:47:56.306Z,85.80
2022-12-03T03:50:23.160Z,85.80
2022-12-03T03:52:49.890Z,85.90
2022-12-03T03:55:17.134Z,85.80
2022-12-03T03:57:43.700Z,85.80
2022-12-03T04:00:10.902Z,85.90
2022-12-03T04:02:37.590Z,85.80
2022-12-03T04:05:04.672Z,85.90
2022-12-03T04:07:31.275Z,85.90
2022-12-03T04:09:57.868Z,86.10
2022-12-03T04:12:43.318Z,86.00
2022-12-03T04:15:10.010Z,86.10
2022-12-03T04:17:36.747Z,86.10
2022-12-03T04:20:03.614Z,86.20
2022-12-03T04:22:42.458Z,86.10
2022-12-03T04:25:28.395Z,86.10
2022-12-03T04:28:13.498Z,86.00
2022-12-03T04:30:40.249Z,86.10
2022-12-03T04:33:25.742Z,86.10
2022-12-03T04:35:52.399Z,86.00
2022-12-03T04:38:19.034Z,85.80
2022-12-03T04:41:00.729Z,86.00
2022-12-03T04:43:27.729Z,86.10
2022-12-03T04:45:54.477Z,86.00
2022-12-03T04:48:21.140Z,86.10
2022-12-03T04:50:48.032Z,86.10
2022-12-03T04:53:14.708Z,86.20
2022-12-03T04:55:41.433Z,86.10
2022-12-03T04:58:08.107Z,86.20
2022-12-03T05:00:34.637Z,86.10
2022-12-03T05:03:01.327Z,86.30
2022-12-03T05:05:27.899Z,86.20
2022-12-03T05:07:54.577Z,86.20
2022-12-03T05:10:21.199Z,86.20
2022-12-03T05:12:47.760Z,86.20
2022-12-03T05:15:14.365Z,86.20
2022-12-03T05:17:40.911Z,86.20
2022-12-03T05:20:27.510Z,86.20
2022-12-03T05:22:54.057Z,86.20
2022-12-03T05:25:20.627Z,86.10
2022-12-03T05:27:47.192Z,86.20
2022-12-03T05:30:14.379Z,86.10
2022-12-03T05:32:41.076Z,86.10
2022-12-03T05:35:07.863Z,86.20
2022-12-03T05:37:34.404Z,86.20
2022-12-03T05:40:00.989Z,86.20
2022-12-03T05:42:45.934Z,86.30
2022-12-03T05:45:12.501Z,86.20
2022-12-03T05:47:39.199Z,86.30
2022-12-03T05:50:06.140Z,86.30
2022-12-03T05:52:32.715Z,86.30
2022-12-03T05:54:59.309Z,86.30
2022-12-03T05:57:25.846Z,86.30
2022-12-03T05:59:52.416Z,86.20
2022-12-03T06:02:19.158Z,86.20
2022-12-03T06:04:45.935Z,86.20
2022-12-03T06:07:14.304Z,86.20
2022-12-03T06:09:41.105Z,86.20
2022-12-03T06:12:08.675Z,86.30
2022-12-03T06:14:35.700Z,86.30
2022-12-03T06:17:02.376Z,86.40
2022-12-03T06:19:28.940Z,86.20
2022-12-03T06:21:55.500Z,86.20
2022-12-03T06:24:22.052Z,86.30
2022-12-03T06:26:48.628Z,86.30
2022-12-03T06:29:15.195Z,86.30
2022-12-03T06:31:41.890Z,86.30
2022-12-03T06:34:08.533Z,86.40
2022-12-03T06:36:35.075Z,86.40
2022-12-03T06:39:01.645Z,86.40
2022-12-03T06:41:28.214Z,86.40
2022-12-03T06:43:54.820Z,86.20
2022-12-03T06:46:21.471Z,86.20
2022-12-03T06:48:48.089Z,86.20
2022-12-03T06:51:14.653Z,86.20
2022-12-03T06:53:41.243Z,86.20
2022-12-03T06:56:07.891Z,86.30
2022-12-03T06:58:34.459Z,86.20
2022-12-03T07:01:01.023Z,86.10
2022-12-03T07:03:27.670Z,86.30
2022-12-03T07:05:54.314Z,86.20
2022-12-03T07:08:20.869Z,86.20
2022-12-03T07:10:47.442Z,86.20
2022-12-03T07:13:14.011Z,86.30
2022-12-03T07:15:40.691Z,86.30
2022-12-03T07:18:07.338Z,86.30
2022-12-03T07:20:33.912Z,86.30
2022-12-03T07:23:00.502Z,86.30
2022-12-03T07:25:27.230Z,86.80
2022-12-03T07:27:53.774Z,86.60
2022-12-03T07:30:20.848Z,86.40
2022-12-03T07:32:47.447Z,86.40
2022-12-03T07:35:14.051Z,86.80
2022-12-03T07:37:40.625Z,86.50
2022-12-03T07:40:07.563Z,87.20
2022-12-03T07:42:34.141Z,88.00
2022-12-03T07:45:00.728Z,87.60
2022-12-03T07:47:27.310Z,87.10
2022-12-03T07:49:53.914Z,86.90
2022-12-03T07:52:20.461Z,86.90
2022-12-03T07:54:47.041Z,86.80
2022-12-03T07:57:13.600Z,86.60
2022-12-03T07:59:40.225Z,86.80
2022-12-03T08:02:06.903Z,86.60
2022-12-03T08:04:33.506Z,86.80
2022-12-03T08:07:00.036Z,86.60
2022-12-03T08:09:26.751Z,86.60
2022-12-03T08:11:53.511Z,86.60
2022-12-03T08:14:20.828Z,86.40
2022-12-03T08:16:47.834Z,86.40
2022-12-03T08:19:15.442Z,86.50
2022-12-03T08:21:42.228Z,86.50
2022-12-03T08:24:13.652Z,86.40
2022-12-03T08:26:40.526Z,86.30
2022-12-03T08:29:14.428Z,86.40
2022-12-03T08:31:41.711Z,86.40
2022-12-03T08:34:17.777Z,86.40
2022-12-03T08:36:44.799Z,86.30
2022-12-03T08:39:22.897Z,86.30
2022-12-03T08:42:31.247Z,86.30
2022-12-03T08:45:31.958Z,86.40
2022-12-03T08:48:00.186Z,86.30
2022-12-03T08:50:31.010Z,86.40
2022-12-03T08:53:11.200Z,86.30
2022-12-03T08:55:38.624Z,86.30
2022-12-03T08:58:23.021Z,86.30
2022-12-03T09:01:00.265Z,86.30
2022-12-03T09:03:30.105Z,86.40
2022-12-03T09:05:56.735Z,86.30
2022-12-03T09:08:23.309Z,86.40
2022-12-03T09:10:49.895Z,86.40
2022-12-03T09:13:16.453Z,86.30
2022-12-03T09:15:43.025Z,86.30
2022-12-03T09:18:09.562Z,86.30
2022-12-03T09:20:36.128Z,86.50
2022-12-03T09:23:02.726Z,86.50
2022-12-03T09:25:29.346Z,86.40
2022-12-03T09:27:55.991Z,86.40
2022-12-03T09:30:22.786Z,86.30
2022-12-03T09:32:49.409Z,86.50
2022-12-03T09:35:16.085Z,86.30
2022-12-03T09:37:42.834Z,86.40
2022-12-03T09:40:10.241Z,86.20
2022-12-03T09:42:37.144Z,86.30
2022-12-03T09:45:05.153Z,86.40
2022-12-03T09:47:31.797Z,87.70
2022-12-03T09:49:58.764Z,87.90
2022-12-03T09:52:28.906Z,87.90
2022-12-03T09:54:55.911Z,88.10
2022-12-03T09:57:22.675Z,88.10
2022-12-03T09:59:49.240Z,88.10
2022-12-03T10:02:24.635Z,88.00
2022-12-03T10:04:53.018Z,87.90
2022-12-03T10:07:20.633Z,87.80
2022-12-03T10:09:47.238Z,87.70
2022-12-03T10:12:14.948Z,87.60
2022-12-03T10:14:42.044Z,87.40
2022-12-03T10:17:11.424Z,87.50
2022-12-03T10:19:39.483Z,87.50
2022-12-03T10:22:06.075Z,87.40
2022-12-03T10:24:33.336Z,87.30
2022-12-03T10:27:04.230Z,87.10
2022-12-03T10:29:35.109Z,87.20
2022-12-03T10:32:03.754Z,87.10
2022-12-03T10:34:35.105Z,87.00
2022-12-03T10:37:14.065Z,86.90
2022-12-03T10:40:00.932Z,86.90
2022-12-03T10:42:32.787Z,86.80
2022-12-03T10:45:08.220Z,86.90
2022-12-03T10:47:34.988Z,86.80
2022-12-03T10:50:03.859Z,86.60
2022-12-03T10:52:30.556Z,86.50
2022-12-03T10:54:57.189Z,86.60
2022-12-03T10:57:23.954Z,86.50
2022-12-03T10:59:50.838Z,86.50
2022-12-03T11:02:24.199Z,86.40
2022-12-03T11:04:51.758Z,87.10
2022-12-03T11:07:19.638Z,87.30
2022-12-03T11:09:47.582Z,86.90
2022-12-03T11:12:18.703Z,86.60
2022-12-03T11:14:51.945Z,86.40
2022-12-03T11:17:24.800Z,86.20
2022-12-03T11:19:52.183Z,86.10
2022-12-03T11:22:21.578Z,86.10
2022-12-03T11:25:08.103Z,86.10
2022-12-03T11:27:35.748Z,86.10
2022-12-03T11:30:02.470Z,86.00
2022-12-03T11:32:38.251Z,86.00
2022-12-03T11:35:23.105Z,86.10
2022-12-03T11:37:49.686Z,85.90
2022-12-03T11:40:16.406Z,85.90
2022-12-03T11:42:43.877Z,85.90
2022-12-03T11:45:10.396Z,85.80
2022-12-03T11:47:37.947Z,85.70
2022-12-03T11:50:21.911Z,85.80
2022-12-03T11:52:52.374Z,85.80
2022-12-03T11:55:25.273Z,85.80
2022-12-03T11:57:57.861Z,85.70
2022-12-03T12:00:24.586Z,85.70
2022-12-03T12:02:52.287Z,85.70
2022-12-03T12:05:27.131Z,85.70
2022-12-03T12:07:54.378Z,85.70
2022-12-03T12:10:40.224Z,86.70
2022-12-03T12:13:07.017Z,86.60
2022-12-03T12:15:39.820Z,86.50
2022-12-03T12:18:25.253Z,86.20
2022-12-03T12:20:51.977Z,86.20
2022-12-03T12:23:23.190Z,86.00
2022-12-03T12:25:54.182Z,86.40
2022-12-03T12:28:21.306Z,86.20
2022-12-03T12:30:47.860Z,86.20
2022-12-03T12:33:19.623Z,85.90
2022-12-03T12:35:46.204Z,85.80
2022-12-03T12:38:15.141Z,85.80
2022-12-03T12:40:56.956Z,85.70
2022-12-03T12:43:27.411Z,85.90
2022-12-03T12:45:54.895Z,85.80
2022-12-03T12:48:22.950Z,85.80
2022-12-03T12:50:52.890Z,86.90
2022-12-03T12:53:24.545Z,89.60
2022-12-03T12:55:54.577Z,88.80
2022-12-03T12:58:21.188Z,87.70
2022-12-03T13:00:50.442Z,87.10
2022-12-03T13:03:18.016Z,86.90
2022-12-03T13:05:45.884Z,86.80
2022-12-03T13:08:22.853Z,86.50
2022-12-03T13:10:50.056Z,86.40
2022-12-03T13:13:16.712Z,86.40
2022-12-03T13:15:47.497Z,86.10
2022-12-03T13:18:21.669Z,86.20
2022-12-03T13:20:48.330Z,86.10
2022-12-03T13:23:32.352Z,86.00
2022-12-03T13:26:07.130Z,86.10
2022-12-03T13:28:40.759Z,86.00
2022-12-03T13:31:24.664Z,86.30
2022-12-03T13:33:51.734Z,86.20
2022-12-03T13:36:19.997Z,86.20
2022-12-03T13:38:46.754Z,86.00
2022-12-03T13:41:33.641Z,86.20
2022-12-03T13:44:32.480Z,86.30
2022-12-03T13:47:11.306Z,86.30
2022-12-03T13:49:37.873Z,86.40
2022-12-03T13:52:09.902Z,86.00
2022-12-03T13:54:39.148Z,86.00
2022-12-03T13:57:06.485Z,86.00
2022-12-03T13:59:33.080Z,85.90
2022-12-03T14:01:59.643Z,86.00
2022-12-03T14:04:26.216Z,85.80
2022-12-03T14:06:52.823Z,85.70
2022-12-03T14:09:19.404Z,85.90
2022-12-03T14:12:07.444Z,85.80
2022-12-03T14:14:34.160Z,85.90
2022-12-03T14:17:00.835Z,85.70
2022-12-03T14:19:27.443Z,86.00
2022-12-03T14:21:54.003Z,85.80
2022-12-03T14:24:20.872Z,85.70
2022-12-03T14:26:47.452Z,85.70
2022-12-03T14:29:14.004Z,86.00
2022-12-03T14:31:40.693Z,85.90
2022-12-03T14:34:13.366Z,85.80
2022-12-03T14:37:02.007Z,85.80
2022-12-03T14:39:28.893Z,85.70
2022-12-03T14:45:14.591Z,85.70
2022-12-03T14:47:41.393Z,85.80
2022-12-03T14:50:08.294Z,85.70
2022-12-03T14:52:35.034Z,86.30
2022-12-03T14:55:01.610Z,88.80
2022-12-03T14:57:28.310Z,89.60
2022-12-03T14:59:55.087Z,88.70
2022-12-03T15:02:21.883Z,87.70
2022-12-03T15:04:50.817Z,87.00
2022-12-03T15:07:17.704Z,86.70
2022-12-03T15:09:44.405Z,87.80
2022-12-03T15:12:10.971Z,88.60
2022-12-03T15:14:37.644Z,87.50
2022-12-03T15:17:04.249Z,86.60
2022-12-03T15:19:30.836Z,86.40
2022-12-03T15:21:57.823Z,86.20
2022-12-03T15:24:25.100Z,86.60
2022-12-03T15:26:52.218Z,86.90
2022-12-03T15:29:19.460Z,86.30
2022-12-03T15:31:46.181Z,86.10
2022-12-03T15:34:15.005Z,85.90
2022-12-03T15:36:45.389Z,85.80
2022-12-03T15:39:12.187Z,85.70
2022-12-03T15:41:38.917Z,85.70
2022-12-03T15:44:05.571Z,85.70
2022-12-03T15:46:32.314Z,85.70
2022-12-03T15:48:58.976Z,85.70
2022-12-03T15:51:25.645Z,85.70
2022-12-03T15:53:52.270Z,85.70
2022-12-03T15:56:18.909Z,85.70
2022-12-03T15:58:45.466Z,86.20
2022-12-03T16:01:13.552Z,88.40
2022-12-03T16:03:41.508Z,88.30
2022-12-03T16:06:41.903Z,87.60
2022-12-03T16:09:11.148Z,86.90
2022-12-03T16:11:37.703Z,86.30
2022-12-03T16:14:04.330Z,86.10
2022-12-03T16:16:31.050Z,85.80
2022-12-03T16:18:57.817Z,85.90
2022-12-03T16:21:27.032Z,85.80
2022-12-03T16:27:19.644Z,85.90
2022-12-03T16:29:49.460Z,85.80
2022-12-03T16:32:16.018Z,85.80
2022-12-03T16:34:42.590Z,85.70
2022-12-03T16:37:10.431Z,85.80
2022-12-03T16:39:37.082Z,85.90
2022-12-03T16:42:04.806Z,86.60
2022-12-03T16:44:33.343Z,87.10
2022-12-03T16:47:01.321Z,87.20
2022-12-03T16:49:28.267Z,87.40
2022-12-03T16:51:54.814Z,87.20
2022-12-03T16:54:21.422Z,87.30
2022-12-03T16:56:47.971Z,87.80
2022-12-03T16:59:14.586Z,88.70
2022-12-03T17:01:41.302Z,89.10
2022-12-03T17:04:08.020Z,88.30
2022-12-03T17:06:34.599Z,87.10
2022-12-03T17:09:01.159Z,86.60
2022-12-03T17:11:28.144Z,86.60
2022-12-03T17:13:54.843Z,86.10
2022-12-03T17:16:21.533Z,86.10
2022-12-03T17:18:48.141Z,85.80
2022-12-03T17:21:15.103Z,85.80
2022-12-03T17:23:41.824Z,87.00
2022-12-03T17:26:08.616Z,86.30
2022-12-03T17:28:35.538Z,86.00
2022-12-03T17:31:02.220Z,85.90
2022-12-03T17:33:28.926Z,85.80
2022-12-03T17:35:55.501Z,85.70
2022-12-03T17:38:22.084Z,85.70
2022-12-03T17:40:48.688Z,85.70
2022-12-03T17:43:15.353Z,85.70
2022-12-03T17:45:43.601Z,85.70
2022-12-03T17:48:10.156Z,85.60
2022-12-03T17:50:36.794Z,85.70
2022-12-03T17:53:05.408Z,85.70
2022-12-03T17:55:39.752Z,85.70
2022-12-03T17:58:10.758Z,85.60
2022-12-03T18:00:37.522Z,85.60
2022-12-03T18:03:04.173Z,85.70
2022-12-03T18:05:30.749Z,85.50
2022-12-03T18:07:57.625Z,85.70
2022-12-03T18:10:24.360Z,85.50
2022-12-03T18:12:51.057Z,85.70
2022-12-03T18:15:17.684Z,85.70
2022-12-03T18:17:44.276Z,85.70
2022-12-03T18:20:10.949Z,85.60
2022-12-03T18:22:37.646Z,85.60
2022-12-03T18:25:04.637Z,85.60
2022-12-03T18:27:31.316Z,85.50
2022-12-03T18:29:58.166Z,85.60
2022-12-03T18:32:29.738Z,85.50
2022-12-03T18:34:57.439Z,85.60
2022-12-03T18:37:27.905Z,85.80
2022-12-03T18:39:55.673Z,85.70
2022-12-03T18:42:23.061Z,85.70
2022-12-03T18:44:50.851Z,85.50
2022-12-03T18:47:19.233Z,85.60
2022-12-03T18:49:46.095Z,85.50
2022-12-03T18:52:13.653Z,85.70
2022-12-03T18:54:42.284Z,85.70
2022-12-03T18:57:08.935Z,85.70
2022-12-03T18:59:35.533Z,85.50
2022-12-03T19:02:02.229Z,85.60
2022-12-03T19:04:28.813Z,85.30
2022-12-03T19:06:55.459Z,85.30
2022-12-03T19:09:22.197Z,85.30
2022-12-03T19:11:48.790Z,85.30
2022-12-03T19:14:15.563Z,85.60
2022-12-03T19:16:42.237Z,85.60
2022-12-03T19:19:09.255Z,85.50
2022-12-03T19:21:36.128Z,85.50
2022-12-03T19:24:26.056Z,85.40
2022-12-03T19:26:54.323Z,85.50
2022-12-03T19:29:24.383Z,85.50
2022-12-03T19:31:51.475Z,85.40
2022-12-03T19:34:18.196Z,85.30
2022-12-03T19:36:44.974Z,85.30
2022-12-03T19:39:11.733Z,85.40
2022-12-03T19:41:39.255Z,85.50
2022-12-03T19:44:10.696Z,85.50
2022-12-03T19:46:37.679Z,85.30
2022-12-03T19:49:04.836Z,85.30
2022-12-03T19:51:35.798Z,85.30
2022-12-03T19:54:04.216Z,85.30
2022-12-03T19:56:30.801Z,85.30
2022-12-03T19:58:57.424Z,85.30
2022-12-03T20:01:25.361Z,85.30
2022-12-03T20:03:53.463Z,85.40
2022-12-03T20:06:23.009Z,85.50
2022-12-03T20:08:50.018Z,85.40
2022-12-03T20:11:18.127Z,85.20
2022-12-03T20:13:45.166Z,85.30
2022-12-03T20:16:13.175Z,85.20
2022-12-03T20:18:40.851Z,85.30
2022-12-03T20:21:08.175Z,85.20
2022-12-03T20:23:34.789Z,85.30
2022-12-03T20:26:01.352Z,85.10
2022-12-03T20:28:28.716Z,85.30
2022-12-03T20:31:02.273Z,85.20
2022-12-03T20:33:29.033Z,85.30
2022-12-03T20:35:56.499Z,85.10
2022-12-03T20:38:23.829Z,85.30
2022-12-03T20:40:50.429Z,85.20
2022-12-03T20:43:16.997Z,85.10
2022-12-03T20:45:43.635Z,85.20
2022-12-03T20:48:11.479Z,85.20
2022-12-03T20:50:38.748Z,85.10
2022-12-03T20:53:23.586Z,85.10
2022-12-03T20:55:55.729Z,85.20
2022-12-03T20:58:22.303Z,85.40
2022-12-03T21:00:48.925Z,85.20
2022-12-03T21:03:15.606Z,85.20
2022-12-03T21:05:45.227Z,85.20
2022-12-03T21:08:12.027Z,85.20
2022-12-03T21:10:45.061Z,85.30
2022-12-03T21:13:12.760Z,85.20
2022-12-03T21:15:39.355Z,85.20
2022-12-03T21:18:06.017Z,85.30
2022-12-03T21:20:32.620Z,85.20
2022-12-03T21:22:59.186Z,85.20
2022-12-03T21:25:25.768Z,85.10
2022-12-03T21:27:52.331Z,85.20
2022-12-03T21:30:18.942Z,85.20
2022-12-03T21:32:45.516Z,85.20
2022-12-03T21:35:12.139Z,85.10
2022-12-03T21:37:38.745Z,85.20
2022-12-03T21:40:05.677Z,85.10
2022-12-03T21:42:35.541Z,85.10
2022-12-03T21:45:08.245Z,85.10
2022-12-03T21:47:37.198Z,85.20
2022-12-03T21:50:09.331Z,85.20
2022-12-03T21:52:36.053Z,85.20
2022-12-03T21:55:02.645Z,85.20
2022-12-03T21:57:29.246Z,85.20
2022-12-03T21:59:56.078Z,85.20
2022-12-03T22:02:22.893Z,85.20
2022-12-03T22:04:50.351Z,85.10
2022-12-03T22:07:17.052Z,85.10
2022-12-03T22:09:43.605Z,85.10
2022-12-03T22:12:10.184Z,85.10
2022-12-03T22:14:37.332Z,85.10
2022-12-03T22:17:04.003Z,85.10
2022-12-03T22:19:30.628Z,84.90
2022-12-03T22:21:57.280Z,85.20
2022-12-03T22:24:24.006Z,85.10
2022-12-03T22:26:52.142Z,85.10
2022-12-03T22:29:18.839Z,85.20
2022-12-03T22:31:45.492Z,85.20
2022-12-03T22:34:12.090Z,85.10
2022-12-03T22:36:40.973Z,85.10
2022-12-03T22:39:07.593Z,85.10
2022-12-03T22:41:34.250Z,85.10
2022-12-03T22:44:00.815Z,85.10
2022-12-03T22:46:27.417Z,85.10
2022-12-03T22:48:54.196Z,85.10
2022-12-03T22:51:22.166Z,85.00
2022-12-03T22:53:53.288Z,85.00
2022-12-03T22:56:19.865Z,85.10
2022-12-03T22:58:46.493Z,85.20
2022-12-03T23:01:23.418Z,85.20
2022-12-03T23:03:50.189Z,85.10
2022-12-03T23:06:16.927Z,85.10
2022-12-03T23:08:43.881Z,85.20
2022-12-03T23:11:10.640Z,85.10
2022-12-03T23:13:37.420Z,85.10
2022-12-03T23:16:04.491Z,85.10
2022-12-03T23:18:31.280Z,85.00
2022-12-03T23:20:58.056Z,85.20
2022-12-03T23:23:25.599Z,85.20
2022-12-03T23:26:08.354Z,85.40
2022-12-03T23:28:36.360Z,85.20
2022-12-03T23:31:03.591Z,85.20
2022-12-03T23:33:35.275Z,85.30
2022-12-03T23:36:05.487Z,85.30
2022-12-03T23:38:32.163Z,85.30
2022-12-03T23:41:03.349Z,85.30
2022-12-03T23:43:30.281Z,85.30
2022-12-03T23:46:02.698Z,85.30
2022-12-03T23:48:29.361Z,85.30
2022-12-03T23:50:57.118Z,85.30
2022-12-03T23:53:23.805Z,85.30
2022-12-03T23:55:50.437Z,85.30
2022-12-03T23:58:17.055Z,85.20
